createdAt,value
2023-01-03T00:01:25.642Z,8.67
2023-01-03T00:03:54.715Z,8.70
2023-01-03T00:06:24.825Z,9.63
2023-01-03T00:08:53.646Z,8.83
2023-01-03T00:11:45.894Z,8.53
2023-01-03T00:14:14.303Z,8.60
2023-01-03T00:16:42.874Z,8.47
2023-01-03T00:19:12.787Z,7.90
2023-01-03T00:21:41.427Z,8.43
2023-01-03T00:24:10.406Z,8.30
2023-01-03T00:26:40.961Z,8.40
2023-01-03T00:29:09.755Z,8.13
2023-01-03T00:31:38.103Z,8.50
2023-01-03T00:34:06.870Z,7.57
2023-01-03T00:36:35.296Z,8.00
2023-01-03T00:39:03.679Z,8.07
2023-01-03T00:41:32.568Z,7.50
2023-01-03T00:44:02.225Z,7.97
2023-01-03T00:46:30.301Z,7.70
2023-01-03T00:48:58.250Z,6.97
2023-01-03T00:51:28.300Z,7.50
2023-01-03T00:53:58.323Z,7.07
2023-01-03T00:56:28.038Z,6.87
2023-01-03T00:58:56.396Z,7.23
2023-01-03T01:01:27.562Z,7.70
2023-01-03T01:03:59.747Z,7.27
2023-01-03T01:06:29.767Z,7.63
2023-01-03T01:09:00.098Z,7.20
2023-01-03T01:11:29.197Z,7.20
2023-01-03T01:13:57.805Z,7.40
2023-01-03T01:16:28.821Z,6.80
2023-01-03T01:18:57.401Z,7.30
2023-01-03T01:21:29.252Z,6.87
2023-01-03T01:23:57.803Z,6.90
2023-01-03T01:26:27.686Z,6.27
2023-01-03T01:28:56.241Z,6.60
2023-01-03T01:31:27.159Z,6.90
2023-01-03T01:33:57.101Z,6.33
2023-01-03T01:36:27.301Z,6.13
2023-01-03T01:38:56.658Z,6.53
2023-01-03T01:41:39.174Z,6.80
2023-01-03T01:44:25.455Z,6.43
2023-01-03T01:46:54.749Z,6.67
2023-01-03T01:49:26.781Z,6.50
2023-01-03T01:51:54.785Z,7.17
2023-01-03T01:54:22.960Z,6.43
2023-01-03T01:56:54.129Z,6.33
2023-01-03T01:59:22.045Z,7.00
2023-01-03T02:01:52.631Z,6.57
2023-01-03T02:04:26.549Z,6.60
2023-01-03T02:06:54.849Z,6.27
2023-01-03T02:09:22.880Z,6.70
2023-01-03T02:12:15.239Z,7.33
2023-01-03T02:14:58.503Z,7.03
2023-01-03T02:17:33.593Z,7.03
2023-01-03T02:20:20.988Z,6.80
2023-01-03T02:23:25.249Z,7.17
2023-01-03T02:26:25.737Z,6.50
2023-01-03T02:29:30.408Z,7.00
2023-01-03T02:32:04.439Z,7.10
2023-01-03T02:34:40.882Z,7.37
2023-01-03T02:37:16.726Z,7.00
2023-01-03T02:39:51.775Z,6.70
2023-01-03T02:42:43.846Z,6.90
2023-01-03T02:45:17.760Z,7.07
2023-01-03T02:47:53.446Z,7.07
2023-01-03T02:50:28.151Z,6.83
2023-01-03T02:53:01.837Z,6.37
2023-01-03T02:55:33.707Z,7.07
2023-01-03T02:58:05.056Z,6.97
2023-01-03T03:00:36.154Z,6.37
2023-01-03T03:03:11.325Z,6.67
2023-01-03T03:05:46.747Z,6.20
2023-01-03T03:08:14.714Z,6.03
2023-01-03T03:11:03.174Z,6.37
2023-01-03T03:13:37.166Z,5.57
2023-01-03T03:16:10.922Z,5.53
2023-01-03T03:18:49.992Z,5.80
2023-01-03T03:21:38.964Z,5.57
2023-01-03T03:24:30.293Z,6.10
2023-01-03T03:27:00.967Z,5.60
2023-01-03T03:29:28.979Z,5.03
2023-01-03T03:31:57.876Z,4.97
2023-01-03T03:34:30.482Z,4.83
2023-01-03T03:37:03.640Z,5.17
2023-01-03T03:39:50.791Z,5.33
2023-01-03T03:42:42.296Z,4.93
2023-01-03T03:45:17.849Z,5.27
2023-01-03T03:47:52.449Z,5.10
2023-01-03T03:50:26.219Z,4.80
2023-01-03T03:52:59.066Z,4.93
2023-01-03T03:55:32.999Z,5.20
2023-01-03T03:58:05.705Z,5.20
2023-01-03T04:00:38.988Z,6.10
2023-01-03T04:03:09.194Z,4.80
2023-01-03T04:05:42.048Z,4.90
2023-01-03T04:08:10.184Z,5.73
2023-01-03T04:10:38.468Z,4.87
2023-01-03T04:13:06.987Z,4.77
2023-01-03T04:15:34.940Z,4.77
2023-01-03T04:18:02.841Z,3.63
2023-01-03T04:20:30.887Z,4.13
2023-01-03T04:23:01.909Z,3.63
2023-01-03T04:25:29.837Z,3.60
2023-01-03T04:27:58.099Z,4.00
2023-01-03T04:30:26.059Z,3.87
2023-01-03T04:32:53.980Z,3.60
2023-01-03T04:35:21.941Z,3.23
2023-01-03T04:37:49.941Z,3.37
2023-01-03T04:40:19.192Z,2.80
2023-01-03T04:43:04.488Z,2.90
2023-01-03T04:45:32.473Z,2.83
2023-01-03T04:48:01.432Z,2.77
2023-01-03T04:50:30.578Z,2.63
2023-01-03T04:52:58.537Z,3.07
2023-01-03T04:55:28.137Z,2.40
2023-01-03T04:57:56.166Z,2.83
2023-01-03T05:00:24.104Z,3.27
2023-01-03T05:02:52.060Z,3.17
2023-01-03T05:05:20.029Z,3.40
2023-01-03T05:07:47.963Z,3.70
2023-01-03T05:10:16.017Z,3.33
2023-01-03T05:12:59.719Z,3.50
2023-01-03T05:15:28.277Z,3.13
2023-01-03T05:17:56.349Z,3.23
2023-01-03T05:20:44.732Z,2.90
2023-01-03T05:23:32.448Z,2.93
2023-01-03T05:26:01.584Z,2.77
2023-01-03T05:28:31.083Z,2.60
2023-01-03T05:30:59.945Z,2.33
2023-01-03T05:33:28.322Z,2.57
2023-01-03T05:35:56.350Z,2.40
2023-01-03T05:38:24.405Z,2.50
2023-01-03T05:40:52.605Z,2.33
2023-01-03T05:43:20.710Z,2.30
2023-01-03T05:45:53.571Z,2.40
2023-01-03T05:48:22.575Z,2.00
2023-01-03T05:50:51.073Z,2.00
2023-01-03T05:53:19.416Z,2.03
2023-01-03T05:55:47.356Z,2.10
2023-01-03T05:58:15.309Z,1.87
2023-01-03T06:00:44.543Z,2.10
2023-01-03T06:03:14.003Z,2.40
2023-01-03T06:05:47.802Z,2.20
2023-01-03T06:08:18.445Z,2.57
2023-01-03T06:10:46.449Z,2.50
2023-01-03T06:13:14.566Z,2.80
2023-01-03T06:15:42.548Z,3.03
2023-01-03T06:18:09.471Z,2.10
2023-01-03T06:20:38.761Z,2.17
2023-01-03T06:23:06.870Z,2.13
2023-01-03T06:25:34.799Z,2.20
2023-01-03T06:28:02.784Z,1.77
2023-01-03T06:30:30.737Z,2.20
2023-01-03T06:32:58.653Z,2.00
2023-01-03T06:35:26.750Z,2.20
2023-01-03T06:37:56.170Z,2.30
2023-01-03T06:40:24.235Z,1.97
2023-01-03T06:42:52.290Z,1.93
2023-01-03T06:45:37.630Z,1.73
2023-01-03T06:48:38.318Z,2.23
2023-01-03T06:51:26.391Z,2.50
2023-01-03T06:53:56.525Z,2.30
2023-01-03T06:56:25.969Z,1.60
2023-01-03T06:58:53.910Z,2.20
2023-01-03T07:01:22.351Z,1.50
2023-01-03T07:03:50.519Z,1.60
2023-01-03T07:06:18.636Z,1.80
2023-01-03T07:08:48.672Z,1.63
2023-01-03T07:11:18.163Z,1.77
2023-01-03T07:14:00.223Z,1.73
2023-01-03T07:16:31.581Z,1.90
2023-01-03T07:19:00.064Z,1.60
2023-01-03T07:21:30.396Z,3.03
2023-01-03T07:24:01.718Z,3.07
2023-01-03T07:26:33.450Z,2.00
2023-01-03T07:29:02.909Z,1.90
2023-01-03T07:31:32.640Z,1.40
2023-01-03T07:34:01.392Z,1.70
2023-01-03T07:36:29.398Z,1.40
2023-01-03T07:38:57.295Z,1.50
2023-01-03T07:41:45.798Z,1.50
2023-01-03T07:44:14.065Z,1.97
2023-01-03T07:46:42.107Z,1.60
2023-01-03T07:49:12.208Z,1.60
2023-01-03T07:51:40.915Z,1.73
2023-01-03T07:54:08.810Z,2.00
2023-01-03T07:56:36.727Z,1.63
2023-01-03T07:59:04.685Z,1.60
2023-01-03T08:01:35.444Z,1.70
2023-01-03T08:04:03.528Z,1.93
2023-01-03T08:06:31.586Z,2.10
2023-01-03T08:09:17.173Z,2.53
2023-01-03T08:12:02.762Z,2.17
2023-01-03T08:14:30.675Z,2.17
2023-01-03T08:16:59.897Z,2.00
2023-01-03T08:19:27.996Z,2.03
2023-01-03T08:21:55.896Z,2.03
2023-01-03T08:24:23.865Z,2.40
2023-01-03T08:26:52.040Z,2.57
2023-01-03T08:29:19.949Z,2.30
2023-01-03T08:31:51.710Z,2.43
2023-01-03T08:34:29.018Z,2.30
2023-01-03T08:37:01.996Z,2.40
2023-01-03T08:39:35.664Z,2.60
2023-01-03T08:42:07.681Z,2.83
2023-01-03T08:44:36.189Z,3.10
2023-01-03T08:47:08.553Z,3.33
2023-01-03T08:49:39.202Z,3.53
2023-01-03T08:52:07.324Z,3.20
2023-01-03T08:54:35.333Z,2.90
2023-01-03T08:57:03.269Z,3.40
2023-01-03T08:59:31.169Z,3.50
2023-01-03T09:02:00.028Z,3.77
2023-01-03T09:04:28.338Z,4.07
2023-01-03T09:06:57.649Z,4.13
2023-01-03T09:09:25.635Z,4.00
2023-01-03T09:11:53.581Z,3.67
2023-01-03T09:14:21.825Z,3.50
2023-01-03T09:16:49.872Z,3.80
2023-01-03T09:19:17.979Z,3.60
2023-01-03T09:21:45.989Z,3.90
2023-01-03T09:24:15.415Z,3.87
2023-01-03T09:26:43.376Z,3.77
2023-01-03T09:29:11.270Z,4.20
2023-01-03T09:31:40.274Z,4.10
2023-01-03T09:34:08.406Z,4.10
2023-01-03T09:36:38.399Z,3.90
2023-01-03T09:39:06.506Z,4.00
2023-01-03T09:41:36.364Z,5.30
2023-01-03T09:44:07.469Z,4.00
2023-01-03T09:46:36.360Z,3.80
2023-01-03T09:49:06.985Z,3.50
2023-01-03T09:51:56.450Z,3.97
2023-01-03T09:55:02.010Z,3.50
2023-01-03T09:57:52.862Z,3.87
2023-01-03T10:00:45.188Z,3.67
2023-01-03T10:03:52.649Z,3.70
2023-01-03T10:06:33.587Z,3.00
2023-01-03T10:09:14.888Z,2.80
2023-01-03T10:11:52.166Z,2.90
2023-01-03T10:14:37.390Z,2.63
2023-01-03T10:17:15.521Z,2.90
2023-01-03T10:20:09.731Z,2.87
2023-01-03T10:22:38.673Z,2.80
2023-01-03T10:25:13.147Z,2.70
2023-01-03T10:27:47.279Z,2.43
2023-01-03T10:30:19.638Z,2.73
2023-01-03T10:33:05.473Z,2.70
2023-01-03T10:35:35.638Z,2.23
2023-01-03T10:38:04.134Z,2.17
2023-01-03T10:40:36.358Z,2.43
2023-01-03T10:43:14.132Z,2.30
2023-01-03T10:45:55.043Z,2.20
2023-01-03T10:48:24.100Z,2.30
2023-01-03T10:50:53.278Z,2.13
2023-01-03T10:53:23.412Z,2.30
2023-01-03T10:55:53.835Z,2.47
2023-01-03T10:58:28.024Z,2.60
2023-01-03T11:01:19.945Z,2.70
2023-01-03T11:04:09.748Z,2.20
2023-01-03T11:06:37.727Z,2.53
2023-01-03T11:09:11.284Z,2.60
2023-01-03T11:11:44.416Z,2.47
2023-01-03T11:14:20.855Z,2.53
2023-01-03T11:16:56.434Z,2.23
2023-01-03T11:19:28.712Z,2.13
2023-01-03T11:22:04.347Z,2.40
2023-01-03T11:24:52.312Z,2.53
2023-01-03T11:27:30.891Z,2.80
2023-01-03T11:30:09.505Z,2.77
2023-01-03T11:32:55.935Z,2.33
2023-01-03T11:35:40.823Z,2.90
2023-01-03T11:38:24.090Z,2.60
2023-01-03T11:41:01.554Z,2.67
2023-01-03T11:43:45.844Z,2.50
2023-01-03T11:46:24.422Z,2.50
2023-01-03T11:49:20.578Z,3.13
2023-01-03T11:52:01.111Z,2.80
2023-01-03T11:54:52.955Z,3.10
2023-01-03T11:57:29.116Z,3.63
2023-01-03T12:00:08.877Z,3.57
2023-01-03T12:03:01.539Z,4.57
2023-01-03T12:05:50.004Z,3.93
2023-01-03T12:08:48.188Z,3.30
2023-01-03T12:11:32.535Z,3.23
2023-01-03T12:14:07.274Z,3.37
2023-01-03T12:16:40.000Z,2.77
2023-01-03T12:19:20.174Z,3.30
2023-01-03T12:21:55.894Z,3.37
2023-01-03T12:24:33.091Z,2.57
2023-01-03T12:27:05.540Z,2.87
2023-01-03T12:29:43.529Z,2.60
2023-01-03T12:32:16.661Z,2.90
2023-01-03T12:34:51.524Z,3.10
2023-01-03T12:37:24.929Z,2.90
2023-01-03T12:39:56.586Z,3.00
2023-01-03T12:42:37.345Z,2.30
2023-01-03T12:45:24.436Z,2.27
2023-01-03T12:47:57.527Z,2.70
2023-01-03T12:50:30.851Z,2.10
2023-01-03T12:53:07.113Z,2.43
2023-01-03T12:55:44.072Z,2.37
2023-01-03T12:58:41.503Z,2.20
2023-01-03T13:01:14.164Z,1.93
2023-01-03T13:03:45.252Z,2.50
2023-01-03T13:06:18.441Z,2.57
2023-01-03T13:08:53.468Z,2.27
2023-01-03T13:11:25.020Z,2.07
2023-01-03T13:13:59.460Z,2.20
2023-01-03T13:16:45.956Z,1.80
2023-01-03T13:19:56.742Z,1.70
2023-01-03T13:22:47.572Z,1.90
2023-01-03T13:25:37.048Z,1.60
2023-01-03T13:28:33.158Z,1.90
2023-01-03T13:31:39.834Z,1.80
2023-01-03T13:34:35.753Z,1.80
2023-01-03T13:37:18.139Z,2.20
2023-01-03T13:39:56.020Z,2.30
2023-01-03T13:42:32.216Z,2.70
2023-01-03T13:45:37.875Z,3.50
2023-01-03T13:48:17.124Z,3.40
2023-01-03T13:51:05.614Z,4.30
2023-01-03T13:53:39.135Z,1.70
2023-01-03T13:56:25.167Z,3.00
2023-01-03T13:59:00.226Z,2.97
2023-01-03T14:01:40.588Z,2.37
2023-01-03T14:04:34.689Z,3.10
2023-01-03T14:07:17.340Z,2.90
2023-01-03T14:10:10.881Z,3.57
2023-01-03T14:12:59.885Z,3.30
2023-01-03T14:15:33.039Z,2.50
2023-01-03T14:18:08.701Z,3.30
2023-01-03T14:20:37.918Z,2.73
2023-01-03T14:23:48.740Z,2.30
2023-01-03T14:26:07.662Z,2.20
2023-01-03T14:28:35.844Z,2.50
2023-01-03T14:31:07.195Z,2.23
2023-01-03T14:33:38.202Z,2.60
2023-01-03T14:36:08.282Z,2.43
2023-01-03T14:38:36.964Z,2.57
2023-01-03T14:41:05.102Z,2.60
2023-01-03T14:47:35.123Z,5.43
2023-01-03T14:50:04.048Z,4.60
2023-01-03T14:52:34.917Z,3.83
2023-01-03T14:55:06.447Z,3.33
2023-01-03T14:57:39.574Z,3.57
2023-01-03T15:00:12.716Z,3.30
2023-01-03T15:02:42.511Z,3.60
2023-01-03T15:05:27.047Z,2.93
2023-01-03T15:08:00.985Z,3.73
2023-01-03T15:10:35.672Z,3.43
2023-01-03T15:13:05.805Z,3.10
2023-01-03T15:15:43.033Z,3.77
2023-01-03T15:18:20.382Z,3.70
2023-01-03T15:20:52.692Z,3.27
2023-01-03T15:23:38.568Z,3.07
2023-01-03T15:26:07.939Z,3.17
2023-01-03T15:28:51.802Z,3.20
2023-01-03T15:31:30.186Z,3.27
2023-01-03T15:34:14.947Z,3.30
2023-01-03T15:36:46.815Z,4.10
2023-01-03T15:39:19.443Z,3.70
2023-01-03T15:42:42.380Z,3.93
2023-01-03T15:44:53.792Z,3.50
2023-01-03T15:47:24.263Z,3.50
2023-01-03T15:49:57.755Z,3.70
2023-01-03T15:52:26.037Z,3.77
2023-01-03T15:54:54.065Z,4.00
2023-01-03T15:57:24.047Z,3.83
2023-01-03T15:59:56.133Z,3.30
2023-01-03T16:02:25.946Z,3.43
2023-01-03T16:04:58.577Z,3.30
2023-01-03T16:07:27.034Z,2.90
2023-01-03T16:09:54.989Z,3.50
2023-01-03T16:12:34.959Z,3.17
2023-01-03T16:15:04.144Z,3.33
2023-01-03T16:17:33.013Z,2.60
2023-01-03T16:20:03.072Z,3.10
2023-01-03T16:22:34.823Z,3.70
2023-01-03T16:25:03.978Z,3.17
2023-01-03T16:27:32.326Z,3.30
2023-01-03T16:30:00.448Z,3.60
2023-01-03T16:32:30.738Z,3.37
2023-01-03T16:35:02.630Z,3.37
2023-01-03T16:37:30.765Z,3.23
2023-01-03T16:39:59.253Z,3.90
2023-01-03T16:42:28.410Z,3.97
2023-01-03T16:44:57.078Z,4.00
2023-01-03T16:47:29.716Z,4.50
2023-01-03T16:50:00.735Z,3.83
2023-01-03T16:52:35.950Z,3.20
2023-01-03T16:55:12.952Z,3.17
2023-01-03T16:57:40.972Z,2.97
2023-01-03T17:00:18.267Z,3.60
2023-01-03T17:02:47.218Z,6.43
2023-01-03T17:05:16.142Z,9.00
2023-01-03T17:07:47.887Z,8.97
2023-01-03T17:10:26.652Z,6.83
2023-01-03T17:12:55.009Z,5.60
2023-01-03T17:15:23.181Z,4.33
2023-01-03T17:17:51.456Z,5.40
2023-01-03T17:20:21.472Z,5.40
2023-01-03T17:22:52.973Z,6.00
2023-01-03T17:25:21.138Z,6.83
2023-01-03T17:27:53.512Z,7.27
2023-01-03T17:30:24.551Z,6.57
2023-01-03T17:32:52.648Z,6.33
2023-01-03T17:35:20.868Z,7.07
2023-01-03T17:38:24.058Z,6.60
2023-01-03T17:40:40.330Z,5.97
2023-01-03T17:43:08.527Z,6.00
2023-01-03T17:45:54.298Z,6.20
2023-01-03T17:48:39.806Z,6.37
2023-01-03T17:51:07.794Z,6.30
2023-01-03T17:53:35.734Z,5.30
2023-01-03T17:56:05.363Z,4.50
2023-01-03T17:58:35.834Z,4.37
2023-01-03T18:01:05.778Z,4.33
2023-01-03T18:03:35.936Z,3.80
2023-01-03T18:06:08.602Z,3.70
2023-01-03T18:08:36.694Z,4.07
2023-01-03T18:11:21.304Z,3.67
2023-01-03T18:13:50.239Z,3.90
2023-01-03T18:16:20.864Z,4.27
2023-01-03T18:18:49.495Z,4.17
2023-01-03T18:21:21.514Z,4.47
2023-01-03T18:23:54.741Z,3.93
2023-01-03T18:26:28.756Z,4.17
2023-01-03T18:28:56.716Z,4.43
2023-01-03T18:31:24.698Z,4.63
2023-01-03T18:33:52.690Z,4.90
2023-01-03T18:36:25.472Z,5.00
2023-01-03T18:38:58.770Z,5.03
2023-01-03T18:41:29.856Z,5.10
2023-01-03T18:43:57.922Z,4.83
2023-01-03T18:46:26.803Z,5.43
2023-01-03T18:48:55.051Z,5.00
2023-01-03T18:51:25.497Z,4.73
2023-01-03T18:53:57.099Z,5.07
2023-01-03T18:56:32.537Z,6.00
2023-01-03T18:59:04.017Z,6.27
2023-01-03T19:01:32.392Z,5.97
2023-01-03T19:04:00.685Z,6.40
2023-01-03T19:06:33.194Z,5.43
2023-01-03T19:09:04.044Z,6.10
2023-01-03T19:11:35.581Z,7.73
2023-01-03T19:14:04.708Z,6.87
2023-01-03T19:16:34.369Z,8.70
2023-01-03T19:19:03.421Z,8.90
2023-01-03T19:21:33.948Z,9.30
2023-01-03T19:24:04.639Z,7.47
2023-01-03T19:26:38.553Z,6.37
2023-01-03T19:29:08.371Z,6.23
2023-01-03T19:31:42.625Z,6.83
2023-01-03T19:34:16.469Z,6.93
2023-01-03T19:36:44.767Z,6.23
2023-01-03T19:39:13.307Z,5.87
2023-01-03T19:42:04.022Z,5.40
2023-01-03T19:44:32.955Z,5.40
2023-01-03T19:47:01.620Z,5.07
2023-01-03T19:49:30.197Z,5.83
2023-01-03T19:51:58.126Z,5.73
2023-01-03T19:54:26.248Z,6.87
2023-01-03T19:56:58.935Z,5.90
2023-01-03T19:59:29.711Z,6.40
2023-01-03T20:02:23.995Z,6.00
2023-01-03T20:04:46.837Z,6.47
2023-01-03T20:07:15.667Z,6.63
2023-01-03T20:09:43.635Z,7.13
2023-01-03T20:12:15.159Z,6.30
2023-01-03T20:14:45.891Z,6.53
2023-01-03T20:17:21.256Z,5.80
2023-01-03T20:19:50.354Z,5.47
2023-01-03T20:22:37.763Z,6.10
2023-01-03T20:25:14.064Z,5.50
2023-01-03T20:27:46.158Z,5.77
2023-01-03T20:30:17.064Z,5.47
2023-01-03T20:32:45.326Z,6.10
2023-01-03T20:36:06.241Z,5.63
2023-01-03T20:38:03.695Z,5.60
2023-01-03T20:40:31.602Z,5.60
2023-01-03T20:43:02.362Z,5.20
2023-01-03T20:45:31.002Z,5.20
2023-01-03T20:48:00.199Z,5.10
2023-01-03T20:50:30.023Z,5.40
2023-01-03T20:52:58.313Z,5.30
2023-01-03T20:55:27.742Z,6.60
2023-01-03T20:57:55.677Z,5.80
2023-01-03T21:00:27.793Z,5.73
2023-01-03T21:02:56.078Z,5.60
2023-01-03T21:05:24.899Z,6.13
2023-01-03T21:08:10.213Z,5.67
2023-01-03T21:10:39.846Z,5.73
2023-01-03T21:13:08.161Z,4.87
2023-01-03T21:15:37.828Z,5.03
2023-01-03T21:18:06.996Z,5.60
2023-01-03T21:20:35.345Z,6.27
2023-01-03T21:23:03.458Z,5.63
2023-01-03T21:25:34.584Z,5.37
2023-01-03T21:28:03.597Z,5.33
2023-01-03T21:30:32.833Z,5.20
2023-01-03T21:33:02.239Z,5.37
2023-01-03T21:35:30.172Z,5.07
2023-01-03T21:37:58.295Z,5.53
2023-01-03T21:40:27.955Z,4.87
2023-01-03T21:43:04.263Z,5.27
2023-01-03T21:45:35.403Z,5.10
2023-01-03T21:48:08.096Z,6.10
2023-01-03T21:50:39.702Z,6.10
2023-01-03T21:53:07.894Z,5.53
2023-01-03T21:55:35.814Z,5.17
2023-01-03T21:58:03.723Z,5.60
2023-01-03T22:00:31.658Z,5.20
2023-01-03T22:03:17.015Z,5.27
2023-01-03T22:05:46.397Z,5.37
2023-01-03T22:08:14.357Z,5.83
2023-01-03T22:10:43.073Z,5.50
2023-01-03T22:13:11.706Z,5.30
2023-01-03T22:15:40.616Z,5.17
2023-01-03T22:18:10.938Z,5.70
2023-01-03T22:20:39.234Z,5.87
2023-01-03T22:23:08.791Z,5.47
2023-01-03T22:25:37.028Z,6.07
2023-01-03T22:28:05.565Z,5.90
2023-01-03T22:30:33.534Z,5.93
2023-01-03T22:33:01.921Z,5.77
2023-01-03T22:35:29.853Z,6.63
2023-01-03T22:37:58.043Z,7.93
2023-01-03T22:40:27.381Z,6.67
2023-01-03T22:42:56.076Z,5.73
2023-01-03T22:45:24.015Z,6.10
2023-01-03T22:47:51.936Z,6.07
2023-01-03T22:50:20.016Z,5.73
2023-01-03T22:52:47.946Z,6.13
2023-01-03T22:55:15.939Z,6.20
2023-01-03T22:57:45.440Z,6.10
2023-01-03T23:00:14.417Z,6.33
2023-01-03T23:02:42.549Z,6.60
2023-01-03T23:05:10.870Z,6.40
2023-01-03T23:07:44.929Z,6.13
2023-01-03T23:10:13.451Z,6.50
2023-01-03T23:12:58.865Z,5.87
2023-01-03T23:15:29.928Z,6.03
2023-01-03T23:17:57.471Z,5.43
2023-01-03T23:20:27.562Z,5.93
2023-01-03T23:22:59.575Z,5.90
2023-01-03T23:25:28.012Z,5.37
2023-01-03T23:27:55.931Z,6.00
2023-01-03T23:30:24.164Z,5.90
2023-01-03T23:32:53.760Z,5.33
2023-01-03T23:35:21.709Z,5.37
2023-01-03T23:37:49.684Z,5.60
2023-01-03T23:40:17.900Z,5.07
2023-01-03T23:42:45.855Z,5.40
2023-01-03T23:45:13.741Z,5.80
2023-01-03T23:47:41.681Z,6.20
2023-01-03T23:50:11.189Z,5.90
2023-01-03T23:52:39.127Z,6.57
2023-01-03T23:55:12.645Z,5.70
2023-01-03T23:57:41.113Z,5.70
